Avalon, WI

6:53 PM CST on February 28, 2015 (GMT -0600)
4th st | Change Station
CLOSE
Current Station
Personal Weather Station
Location: Delavan, WI
Elevation: 938 ft
Nearby Weather Stations

Elev 938 ft 42.63 °N, 88.64 °W | Updated 58 seconds ago

Clear
Clear
15.8 °F
Feels Like 16 °F
N
0.0
Wind Variable Wind from North

Today
High -- | Low -- °F
--% Chance of Precip.
Yesterday
High -- | Low -- °F
Precip. -- in
6:32 AM 5:43 PM
Waxing Gibbous, 81% visible
Pressure 30.50 in
Visibility 10.0 miles
Clouds Scattered Clouds 12000 ft
Windchill 16 °F
Dew Point 6 °F
Humidity 63%
Rainfall -999.00 in
Snow Depth Not available.
UV 0 out of 12
Pollen .50 out of 12
Air Quality Not available.
Flu Activity Not available.
METAR KJVL 282345Z 13007KT 10SM SCT120 M08/M16 A3050

More Conditions Fewer Conditions

Pressure 30.50 in
Visibility 10.0 miles
Clouds Scattered Clouds 12000 ft
Windchill 16 °F
Dew Point 6 °F
Humidity 63%
Rainfall -999.00 in
Snow Depth Not available.
UV 0 out of 12
Pollen .50 out of 12
Air Quality Not available.
Flu Activity Not available.
METAR KJVL 282345Z 13007KT 10SM SCT120 M08/M16 A3050

More Conditions Fewer Conditions

10-Day Weather Forecast

Almanac

Astronomy

Feb. 28, 2015 Rise Set
Actual Time
Civil Twilight
Nautical Twilight
Astronomical Twilight
Moon
Length of Visible Light
Length of Day
Tomorrow will be .
, % of the Moon is Illuminated

Today's Extremes

State Highs State Lows

Community

WunderPhotos

Upload Photos

1,801,194 photos uploaded!

WunderBlogs® & News

Nearby

Air Quality

  Air Quality AQ Index Pollutant
Not available.

Snow Depth

Station Depth Elevation

Earthquake Activity

City Distance Mag. Time & Date
Minimum magnitude displayed is 2.5.

Coastal Water Temperatures

Place Temperature

Nearby Weather Stations